createdAt,value
2017-05-24T00:02:16.423Z,3.72
2017-05-24T00:04:44.681Z,3.62
2017-05-24T00:07:12.943Z,4.52
2017-05-24T00:09:41.175Z,3.96
2017-05-24T00:12:09.427Z,3.52
2017-05-24T00:14:37.678Z,4.32
2017-05-24T00:17:05.901Z,4.10
2017-05-24T00:19:34.142Z,4.68
2017-05-24T00:22:02.370Z,3.96
2017-05-24T00:24:30.606Z,3.62
2017-05-24T00:26:58.850Z,3.96
2017-05-24T00:29:27.079Z,3.82
2017-05-24T00:31:55.318Z,4.20
2017-05-24T00:34:23.546Z,3.72
2017-05-24T00:36:51.808Z,3.84
2017-05-24T00:39:20.034Z,4.12
2017-05-24T00:41:48.273Z,3.94
2017-05-24T00:44:16.506Z,3.34
2017-05-24T00:46:44.731Z,3.90
2017-05-24T00:49:12.967Z,3.80
2017-05-24T00:51:41.195Z,3.84
2017-05-24T00:54:09.457Z,2.70
2017-05-24T00:56:37.693Z,3.16
2017-05-24T00:59:05.926Z,3.32
2017-05-24T01:01:34.170Z,3.20
2017-05-24T01:04:02.399Z,3.16
2017-05-24T01:06:30.650Z,2.78
2017-05-24T01:08:58.874Z,2.92
2017-05-24T01:11:27.129Z,3.16
2017-05-24T01:13:55.355Z,2.44
2017-05-24T01:16:23.597Z,2.50
2017-05-24T01:18:51.835Z,2.44
2017-05-24T01:21:20.059Z,2.34
2017-05-24T01:23:48.299Z,2.20
2017-05-24T01:26:16.527Z,2.20
2017-05-24T01:28:44.775Z,2.06
2017-05-24T01:31:13.003Z,2.32
2017-05-24T01:33:41.232Z,2.10
2017-05-24T01:36:09.466Z,2.08
2017-05-24T01:38:37.694Z,2.48
2017-05-24T01:41:05.935Z,2.90
2017-05-24T01:43:34.171Z,2.18
2017-05-24T01:46:02.442Z,2.40
2017-05-24T01:48:30.662Z,2.40
2017-05-24T01:50:58.905Z,2.44
2017-05-24T01:53:27.134Z,2.92
2017-05-24T01:55:55.363Z,2.54
2017-05-24T01:58:23.599Z,2.54
2017-05-24T02:00:51.830Z,2.70
2017-05-24T02:03:20.078Z,2.30
2017-05-24T02:05:48.307Z,2.60
2017-05-24T02:08:16.530Z,2.56
2017-05-24T02:10:44.842Z,2.32
2017-05-24T02:13:13.080Z,3.00
2017-05-24T02:15:41.324Z,2.04
2017-05-24T02:18:09.567Z,2.04
2017-05-24T02:20:37.804Z,2.60
2017-05-24T02:23:06.035Z,1.98
2017-05-24T02:25:34.267Z,2.60
2017-05-24T02:28:02.500Z,2.26
2017-05-24T02:30:29.955Z,2.58
2017-05-24T02:32:58.281Z,2.38
2017-05-24T02:35:26.514Z,2.32
2017-05-24T02:37:54.756Z,2.94
2017-05-24T02:40:22.991Z,2.60
2017-05-24T02:42:51.223Z,2.80
2017-05-24T02:45:19.462Z,3.62
2017-05-24T02:47:47.687Z,2.66
2017-05-24T02:50:16.213Z,2.80
2017-05-24T02:52:44.451Z,2.40
2017-05-24T02:55:12.700Z,2.70
2017-05-24T02:57:40.923Z,2.46
2017-05-24T03:00:09.151Z,2.40
2017-05-24T03:02:37.393Z,2.68
2017-05-24T03:05:05.624Z,2.52
2017-05-24T03:07:33.870Z,2.30
2017-05-24T03:10:02.106Z,2.46
2017-05-24T03:12:30.351Z,2.40
2017-05-24T03:14:58.586Z,2.40
2017-05-24T03:17:26.807Z,2.54
2017-05-24T03:19:55.083Z,2.48
2017-05-24T03:22:23.315Z,2.26
2017-05-24T03:24:51.546Z,2.06
2017-05-24T03:27:19.775Z,2.52
2017-05-24T03:29:48.083Z,2.42
2017-05-24T03:32:16.274Z,2.30
2017-05-24T03:34:44.499Z,2.50
2017-05-24T03:37:12.762Z,2.58
2017-05-24T03:39:40.990Z,2.12
2017-05-24T03:42:09.222Z,2.00
2017-05-24T03:44:37.456Z,2.10
2017-05-24T03:47:05.693Z,2.22
2017-05-24T03:49:33.941Z,2.40
2017-05-24T03:52:02.163Z,1.78
2017-05-24T03:54:30.422Z,3.00
2017-05-24T03:56:58.682Z,2.20
2017-05-24T03:59:26.902Z,1.78
2017-05-24T04:01:55.174Z,2.50
2017-05-24T04:04:23.396Z,2.06
2017-05-24T04:06:51.657Z,2.30
2017-05-24T04:09:19.894Z,2.36
2017-05-24T04:11:48.135Z,1.94
2017-05-24T04:14:16.375Z,2.76
2017-05-24T04:16:44.599Z,2.34
2017-05-24T04:19:12.853Z,3.18
2017-05-24T04:21:41.080Z,2.20
2017-05-24T04:24:09.372Z,2.18
2017-05-24T04:26:37.608Z,2.38
2017-05-24T04:29:05.835Z,2.62
2017-05-24T04:31:34.086Z,2.28
2017-05-24T04:34:02.302Z,2.70
2017-05-24T04:36:30.555Z,2.10
2017-05-24T04:38:58.775Z,2.46
2017-05-24T04:41:27.003Z,2.06
2017-05-24T04:43:55.232Z,2.06
2017-05-24T04:46:23.454Z,2.38
2017-05-24T04:48:51.699Z,2.20
2017-05-24T04:51:19.933Z,2.18
2017-05-24T04:53:48.183Z,2.00
2017-05-24T04:56:16.406Z,2.42
2017-05-24T04:58:44.643Z,2.48
2017-05-24T05:01:12.888Z,2.00
2017-05-24T05:03:41.159Z,2.10
2017-05-24T05:06:09.418Z,2.04
2017-05-24T05:08:37.635Z,2.08
2017-05-24T05:11:05.891Z,2.00
2017-05-24T05:13:34.111Z,2.08
2017-05-24T05:16:02.339Z,2.66
2017-05-24T05:18:30.574Z,2.26
2017-05-24T05:20:58.828Z,2.10
2017-05-24T05:23:27.077Z,1.84
2017-05-24T05:25:55.300Z,2.12
2017-05-24T05:28:23.553Z,2.20
2017-05-24T05:30:51.780Z,2.00
2017-05-24T05:33:20.007Z,2.30
2017-05-24T05:35:48.261Z,3.02
2017-05-24T05:38:16.483Z,1.84
2017-05-24T05:40:44.718Z,1.96
2017-05-24T05:43:12.960Z,2.20
2017-05-24T05:45:41.231Z,2.76
2017-05-24T05:48:09.490Z,2.88
2017-05-24T05:50:37.733Z,2.96
2017-05-24T05:53:05.980Z,2.84
2017-05-24T05:55:34.208Z,2.40
2017-05-24T05:58:02.439Z,2.42
2017-05-24T06:00:30.659Z,2.36
2017-05-24T06:02:58.911Z,2.30
2017-05-24T06:05:27.144Z,1.70
2017-05-24T06:07:55.423Z,2.66
2017-05-24T06:10:23.689Z,2.00
2017-05-24T06:12:51.919Z,2.32
2017-05-24T06:15:20.147Z,2.18
2017-05-24T06:17:48.381Z,2.26
2017-05-24T06:20:16.627Z,1.90
2017-05-24T06:22:44.865Z,1.74
2017-05-24T06:25:13.102Z,5.28
2017-05-24T06:27:41.339Z,2.18
2017-05-24T06:30:09.567Z,2.10
2017-05-24T06:32:37.803Z,2.00
2017-05-24T06:35:06.031Z,2.00
2017-05-24T06:37:34.280Z,1.70
2017-05-24T06:40:02.512Z,2.10
2017-05-24T06:42:30.735Z,2.70
2017-05-24T06:44:58.975Z,2.38
2017-05-24T06:47:27.221Z,1.98
2017-05-24T06:49:57.183Z,2.28
2017-05-24T06:52:25.411Z,2.82
2017-05-24T06:54:53.650Z,2.72
2017-05-24T06:57:21.882Z,2.82
2017-05-24T06:59:50.110Z,2.72
2017-05-24T07:02:18.335Z,2.22
2017-05-24T07:04:46.559Z,2.32
2017-05-24T07:07:14.825Z,2.18
2017-05-24T07:09:43.043Z,2.34
2017-05-24T07:12:11.279Z,2.72
2017-05-24T07:14:39.516Z,2.90
2017-05-24T07:17:07.763Z,2.58
2017-05-24T07:19:36.001Z,3.06
2017-05-24T07:22:04.237Z,2.40
2017-05-24T07:24:32.474Z,3.98
2017-05-24T07:27:00.698Z,2.74
2017-05-24T07:29:28.930Z,2.16
2017-05-24T07:31:57.183Z,2.50
2017-05-24T07:34:25.435Z,2.88
2017-05-24T07:36:53.672Z,2.36
2017-05-24T07:39:21.907Z,2.54
2017-05-24T07:41:50.164Z,1.90
2017-05-24T07:44:18.382Z,2.16
2017-05-24T07:46:46.623Z,2.12
2017-05-24T07:49:14.848Z,1.96
2017-05-24T07:51:43.083Z,1.58
2017-05-24T07:54:11.307Z,2.16
2017-05-24T07:56:39.555Z,2.20
2017-05-24T07:59:07.790Z,2.00
2017-05-24T08:01:36.010Z,1.86
2017-05-24T08:04:04.247Z,1.90
2017-05-24T08:06:32.470Z,2.00
2017-05-24T08:09:00.721Z,1.80
2017-05-24T08:11:28.942Z,1.64
2017-05-24T08:13:57.196Z,2.40
2017-05-24T08:16:25.423Z,2.04
2017-05-24T08:18:53.652Z,1.70
2017-05-24T08:21:21.903Z,1.56
2017-05-24T08:23:50.123Z,1.74
2017-05-24T08:26:18.371Z,1.60
2017-05-24T08:28:46.612Z,1.70
2017-05-24T08:31:14.850Z,1.42
2017-05-24T08:33:43.106Z,1.40
2017-05-24T08:36:11.347Z,1.64
2017-05-24T08:38:39.611Z,1.54
2017-05-24T08:41:07.865Z,1.40
2017-05-24T08:43:36.104Z,1.72
2017-05-24T08:46:04.334Z,1.30
2017-05-24T08:48:32.583Z,1.72
2017-05-24T08:51:00.835Z,1.54
2017-05-24T08:53:29.062Z,1.92
2017-05-24T08:55:57.311Z,1.76
2017-05-24T08:58:25.543Z,1.64
2017-05-24T09:00:53.786Z,1.66
2017-05-24T09:03:22.015Z,2.26
2017-05-24T09:05:50.272Z,2.22
2017-05-24T09:08:18.498Z,1.96
2017-05-24T09:10:46.722Z,1.70
2017-05-24T09:13:14.955Z,1.86
2017-05-24T09:15:43.179Z,1.50
2017-05-24T09:18:11.415Z,2.18
2017-05-24T09:20:39.667Z,1.58
2017-05-24T09:23:07.918Z,2.20
2017-05-24T09:25:36.154Z,1.92
2017-05-24T09:28:04.375Z,1.80
2017-05-24T09:30:32.622Z,1.94
2017-05-24T09:33:00.842Z,2.18
2017-05-24T09:35:29.096Z,2.34
2017-05-24T09:37:57.319Z,2.00
2017-05-24T09:40:25.550Z,1.78
2017-05-24T09:42:53.799Z,1.98
2017-05-24T09:45:22.035Z,2.26
2017-05-24T09:47:50.279Z,2.10
2017-05-24T09:50:18.510Z,1.70
2017-05-24T09:52:46.731Z,1.82
2017-05-24T09:55:14.972Z,1.94
2017-05-24T09:57:43.200Z,1.78
2017-05-24T10:00:11.457Z,3.40
2017-05-24T10:02:39.680Z,2.50
2017-05-24T10:05:07.924Z,2.06
2017-05-24T10:07:36.152Z,2.24
2017-05-24T10:10:04.379Z,2.34
2017-05-24T10:12:32.617Z,2.00
2017-05-24T10:15:00.852Z,2.00
2017-05-24T10:17:29.099Z,1.98
2017-05-24T10:19:57.332Z,2.10
2017-05-24T10:22:25.550Z,2.36
2017-05-24T10:24:53.783Z,2.10
2017-05-24T10:27:22.010Z,1.90
2017-05-24T10:29:50.269Z,3.02
2017-05-24T10:32:18.491Z,2.94
2017-05-24T10:34:46.739Z,2.14
2017-05-24T10:37:14.967Z,2.20
2017-05-24T10:39:43.202Z,2.20
2017-05-24T10:42:26.329Z,3.22
2017-05-24T10:44:54.555Z,3.60
2017-05-24T10:47:22.813Z,4.70
2017-05-24T10:49:51.039Z,2.86
2017-05-24T10:52:19.295Z,2.58
2017-05-24T10:54:47.515Z,1.86
2017-05-24T10:57:15.747Z,2.40
2017-05-24T10:59:43.986Z,1.68
2017-05-24T11:02:12.211Z,2.18
2017-05-24T11:04:40.461Z,2.12
2017-05-24T11:07:08.683Z,2.88
2017-05-24T11:09:36.931Z,2.52
2017-05-24T11:12:05.179Z,2.26
2017-05-24T11:14:33.398Z,2.28
2017-05-24T11:17:01.631Z,2.10
2017-05-24T11:19:29.863Z,2.00
2017-05-24T11:21:58.112Z,1.90
2017-05-24T11:24:26.332Z,2.34
2017-05-24T11:26:54.589Z,2.10
2017-05-24T11:29:22.811Z,2.52
2017-05-24T11:31:51.457Z,1.90
2017-05-24T11:34:19.694Z,1.84
2017-05-24T11:36:47.924Z,3.32
2017-05-24T11:39:16.167Z,1.94
2017-05-24T11:41:44.391Z,2.64
2017-05-24T11:44:12.635Z,2.68
2017-05-24T11:46:40.873Z,2.54
2017-05-24T11:49:09.094Z,2.32
2017-05-24T11:51:37.345Z,2.68
2017-05-24T11:54:05.571Z,2.58
2017-05-24T11:56:33.803Z,3.26
2017-05-24T11:59:02.045Z,2.18
2017-05-24T12:01:30.317Z,2.60
2017-05-24T12:03:58.534Z,2.40
2017-05-24T12:06:26.762Z,2.20
2017-05-24T12:08:55.014Z,2.62
2017-05-24T12:11:23.242Z,2.10
2017-05-24T12:13:51.921Z,2.40
2017-05-24T12:16:20.143Z,3.02
2017-05-24T12:18:48.404Z,2.90
2017-05-24T12:21:16.631Z,2.44
2017-05-24T12:23:44.870Z,2.36
2017-05-24T12:26:13.106Z,2.62
2017-05-24T12:28:41.332Z,2.78
2017-05-24T12:31:09.581Z,2.56
2017-05-24T12:33:37.821Z,2.54
2017-05-24T12:36:06.067Z,2.20
2017-05-24T12:38:34.290Z,2.56
2017-05-24T12:41:03.002Z,2.42
2017-05-24T12:43:31.231Z,2.72
2017-05-24T12:45:59.458Z,2.60
2017-05-24T12:48:27.691Z,2.44
2017-05-24T12:50:55.919Z,2.74
2017-05-24T12:53:24.182Z,3.10
2017-05-24T12:55:52.411Z,3.24
2017-05-24T12:58:20.633Z,2.60
2017-05-24T13:00:48.866Z,2.88
2017-05-24T13:03:17.106Z,2.20
2017-05-24T13:05:45.350Z,2.52
2017-05-24T13:08:13.571Z,1.88
2017-05-24T13:10:41.818Z,2.84
2017-05-24T13:13:10.061Z,2.32
2017-05-24T13:15:38.287Z,2.34
2017-05-24T13:18:06.519Z,2.50
2017-05-24T13:20:34.739Z,2.56
2017-05-24T13:23:02.971Z,2.48
2017-05-24T13:25:31.196Z,2.30
2017-05-24T13:27:59.447Z,2.40
2017-05-24T13:30:27.685Z,2.22
2017-05-24T13:32:55.907Z,2.96
2017-05-24T13:35:24.260Z,3.16
2017-05-24T13:37:52.479Z,3.22
2017-05-24T13:40:20.734Z,3.10
2017-05-24T13:42:48.967Z,3.52
2017-05-24T13:45:17.237Z,2.50
2017-05-24T13:47:45.481Z,3.80
2017-05-24T13:50:13.795Z,6.00
2017-05-24T13:52:42.057Z,5.82
2017-05-24T13:55:10.293Z,3.52
2017-05-24T13:57:38.528Z,2.40
2017-05-24T14:00:06.747Z,3.24
2017-05-24T14:02:35.002Z,3.22
2017-05-24T14:05:03.249Z,3.36
2017-05-24T14:07:31.475Z,3.24
2017-05-24T14:09:59.712Z,3.48
2017-05-24T14:12:27.934Z,3.48
2017-05-24T14:14:56.175Z,2.88
2017-05-24T14:17:24.419Z,3.06
2017-05-24T14:19:52.681Z,3.12
2017-05-24T14:22:20.903Z,3.20
2017-05-24T14:24:49.125Z,3.42
2017-05-24T14:27:17.391Z,3.36
2017-05-24T14:29:45.629Z,2.84
2017-05-24T14:32:13.859Z,3.14
2017-05-24T14:34:42.097Z,2.90
2017-05-24T14:37:10.364Z,3.48
2017-05-24T14:39:38.614Z,3.08
2017-05-24T14:42:06.858Z,3.72
2017-05-24T14:44:35.090Z,3.00
2017-05-24T14:47:03.311Z,2.32
2017-05-24T14:49:31.544Z,3.32
2017-05-24T14:51:59.767Z,3.08
2017-05-24T14:54:28.016Z,3.02
2017-05-24T14:56:56.253Z,3.58
2017-05-24T14:59:24.525Z,3.10
2017-05-24T15:01:52.799Z,4.78
2017-05-24T15:04:21.023Z,4.98
2017-05-24T15:06:49.255Z,4.58
2017-05-24T15:09:17.475Z,3.20
2017-05-24T15:11:45.721Z,3.00
2017-05-24T15:14:13.944Z,2.50
2017-05-24T15:16:42.303Z,2.98
2017-05-24T15:19:10.548Z,3.66
2017-05-24T15:21:38.781Z,3.76
2017-05-24T15:24:07.011Z,5.94
2017-05-24T15:26:35.239Z,4.54
2017-05-24T15:29:03.479Z,3.50
2017-05-24T15:31:31.698Z,2.86
2017-05-24T15:33:59.951Z,6.04
2017-05-24T15:36:28.175Z,3.62
2017-05-24T15:38:56.400Z,3.02
2017-05-24T15:41:24.653Z,3.20
2017-05-24T15:43:52.875Z,4.68
2017-05-24T15:46:21.115Z,2.78
2017-05-24T15:48:49.338Z,3.02
2017-05-24T15:51:17.587Z,3.34
2017-05-24T15:53:45.833Z,3.30
2017-05-24T15:56:14.071Z,3.20
2017-05-24T15:58:42.303Z,3.60
2017-05-24T16:01:10.539Z,4.14
2017-05-24T16:03:38.767Z,4.86
2017-05-24T16:06:06.995Z,4.44
2017-05-24T16:08:35.247Z,5.32
2017-05-24T16:11:03.487Z,3.76
2017-05-24T16:13:31.715Z,3.76
2017-05-24T16:15:59.964Z,4.12
2017-05-24T16:18:28.188Z,3.94
2017-05-24T16:20:56.463Z,4.20
2017-05-24T16:23:24.695Z,6.40
2017-05-24T16:25:52.917Z,4.72
2017-05-24T16:28:21.150Z,4.10
2017-05-24T16:30:49.393Z,5.60
2017-05-24T16:33:17.666Z,5.40
2017-05-24T16:35:45.890Z,5.84
2017-05-24T16:38:14.167Z,6.32
2017-05-24T16:40:42.409Z,4.64
2017-05-24T16:43:10.639Z,4.58
2017-05-24T16:45:38.909Z,4.70
2017-05-24T16:48:07.159Z,4.66
2017-05-24T16:50:35.384Z,4.30
2017-05-24T16:53:03.621Z,3.88
2017-05-24T16:55:32.283Z,4.18
2017-05-24T16:58:00.546Z,5.28
2017-05-24T17:00:28.778Z,3.72
2017-05-24T17:02:57.018Z,4.28
2017-05-24T17:05:25.306Z,6.30
2017-05-24T17:07:53.523Z,5.18
2017-05-24T17:10:21.759Z,4.00
2017-05-24T17:12:49.999Z,4.30
2017-05-24T17:15:18.273Z,4.16
2017-05-24T17:17:46.513Z,4.86
2017-05-24T17:20:14.734Z,3.46
2017-05-24T17:22:42.984Z,4.18
2017-05-24T17:25:11.240Z,4.22
2017-05-24T17:27:39.474Z,4.78
2017-05-24T17:30:07.707Z,5.02
2017-05-24T17:32:35.974Z,6.26
2017-05-24T17:35:04.194Z,4.52
2017-05-24T17:37:32.437Z,4.00
2017-05-24T17:40:00.693Z,7.38
2017-05-24T17:42:28.914Z,4.76
2017-05-24T17:44:57.174Z,4.86
2017-05-24T17:47:25.449Z,4.60
2017-05-24T17:49:53.710Z,4.46
2017-05-24T17:52:21.945Z,4.98
2017-05-24T17:54:50.175Z,5.42
2017-05-24T17:57:18.417Z,5.24
2017-05-24T17:59:46.637Z,5.86
2017-05-24T18:02:14.879Z,8.54
2017-05-24T18:04:43.103Z,5.76
2017-05-24T18:07:11.347Z,5.24
2017-05-24T18:09:39.568Z,5.54
2017-05-24T18:12:07.796Z,5.58
2017-05-24T18:14:36.030Z,5.26
2017-05-24T18:17:04.260Z,5.58
2017-05-24T18:19:32.505Z,5.52
2017-05-24T18:22:00.739Z,4.98
2017-05-24T18:24:29.170Z,5.47
2017-05-24T18:26:57.405Z,5.32
2017-05-24T18:29:25.660Z,5.96
2017-05-24T18:31:53.909Z,5.40
2017-05-24T18:34:22.135Z,6.14
2017-05-24T18:36:50.375Z,6.18
2017-05-24T18:39:18.603Z,6.12
2017-05-24T18:41:46.849Z,5.68
2017-05-24T18:44:15.089Z,6.28
2017-05-24T18:46:44.246Z,6.70
2017-05-24T18:49:12.486Z,6.06
2017-05-24T18:51:40.712Z,6.94
2017-05-24T18:54:08.973Z,7.20
2017-05-24T18:56:37.213Z,7.42
2017-05-24T18:59:05.464Z,7.48
2017-05-24T19:01:33.705Z,7.94
2017-05-24T19:04:02.042Z,6.32
2017-05-24T19:06:30.271Z,6.82
2017-05-24T19:08:58.521Z,7.66
2017-05-24T19:11:26.760Z,7.26
2017-05-24T19:13:55.007Z,6.72
2017-05-24T19:16:23.258Z,6.60
2017-05-24T19:18:51.587Z,5.80
2017-05-24T19:21:19.807Z,6.98
2017-05-24T19:23:48.064Z,6.46
2017-05-24T19:26:16.303Z,7.50
2017-05-24T19:28:44.557Z,7.54
2017-05-24T19:31:12.791Z,7.38
2017-05-24T19:33:41.041Z,7.76
2017-05-24T19:36:09.303Z,6.98
2017-05-24T19:38:37.531Z,8.04
2017-05-24T19:41:05.799Z,9.16
2017-05-24T19:43:34.842Z,7.10
2017-05-24T19:46:03.084Z,7.46
2017-05-24T19:48:31.330Z,7.14
2017-05-24T19:50:59.573Z,7.22
2017-05-24T19:53:27.815Z,7.12
2017-05-24T19:55:56.049Z,7.70
2017-05-24T19:58:24.272Z,7.20
2017-05-24T20:00:52.529Z,8.48
2017-05-24T20:03:20.777Z,7.68
2017-05-24T20:05:49.032Z,7.34
2017-05-24T20:08:17.456Z,7.94
2017-05-24T20:10:45.717Z,7.66
2017-05-24T20:13:13.989Z,8.68
2017-05-24T20:15:42.257Z,7.32
2017-05-24T20:18:10.544Z,7.90
2017-05-24T20:20:38.893Z,8.20
2017-05-24T20:23:07.157Z,8.02
2017-05-24T20:25:35.409Z,8.98
2017-05-24T20:28:03.688Z,7.14
2017-05-24T20:30:31.922Z,8.62
2017-05-24T20:33:00.155Z,7.74
2017-05-24T20:35:28.405Z,8.48
2017-05-24T20:37:56.649Z,8.80
2017-05-24T20:40:24.884Z,6.74
2017-05-24T20:42:53.194Z,6.84
2017-05-24T20:45:21.469Z,7.00
2017-05-24T20:47:49.709Z,7.10
2017-05-24T20:50:17.957Z,6.22
2017-05-24T20:52:46.216Z,7.34
2017-05-24T20:55:14.574Z,8.20
2017-05-24T20:57:42.809Z,6.32
2017-05-24T21:00:11.042Z,8.12
2017-05-24T21:02:39.272Z,7.14
2017-05-24T21:05:07.533Z,7.36
2017-05-24T21:07:35.767Z,7.28
2017-05-24T21:10:04.038Z,6.50
2017-05-24T21:12:32.270Z,7.80
2017-05-24T21:15:00.499Z,7.38
2017-05-24T21:17:28.743Z,6.80
2017-05-24T21:19:57.021Z,7.32
2017-05-24T21:22:25.272Z,7.52
2017-05-24T21:24:53.507Z,6.28
2017-05-24T21:27:21.782Z,7.60
2017-05-24T21:29:50.003Z,6.88
2017-05-24T21:32:18.231Z,6.24
2017-05-24T21:34:46.486Z,6.36
2017-05-24T21:37:14.716Z,6.52
2017-05-24T21:39:42.961Z,6.40
2017-05-24T21:42:11.197Z,6.26
2017-05-24T21:44:39.773Z,7.12
2017-05-24T21:47:08.018Z,7.10
2017-05-24T21:49:36.243Z,8.30
2017-05-24T21:52:04.512Z,8.42
2017-05-24T21:54:32.732Z,8.08
2017-05-24T21:57:00.991Z,8.20
2017-05-24T21:59:29.223Z,7.54
2017-05-24T22:01:57.488Z,8.16
2017-05-24T22:04:25.722Z,8.06
2017-05-24T22:06:53.955Z,8.22
2017-05-24T22:09:22.193Z,8.26
2017-05-24T22:11:50.433Z,8.46
2017-05-24T22:14:31.717Z,7.88
2017-05-24T22:16:59.943Z,9.18
2017-05-24T22:19:28.224Z,8.62
2017-05-24T22:21:56.471Z,7.60
2017-05-24T22:24:24.709Z,8.40
2017-05-24T22:26:52.957Z,8.82
2017-05-24T22:29:21.182Z,7.16
2017-05-24T22:31:49.430Z,7.54
2017-05-24T22:34:17.656Z,8.14
2017-05-24T22:36:45.939Z,8.28
2017-05-24T22:39:14.178Z,8.36
2017-05-24T22:41:42.402Z,7.94
2017-05-24T22:44:10.646Z,9.06
2017-05-24T22:46:38.878Z,8.64
2017-05-24T22:49:07.130Z,9.28
2017-05-24T22:51:35.359Z,8.26
2017-05-24T22:54:03.586Z,8.06
2017-05-24T22:56:31.840Z,8.58
2017-05-24T22:59:00.059Z,7.32
2017-05-24T23:01:28.329Z,7.82
2017-05-24T23:03:56.567Z,8.08
2017-05-24T23:06:24.800Z,8.30
2017-05-24T23:08:53.036Z,6.96
2017-05-24T23:11:21.259Z,7.76
2017-05-24T23:13:49.515Z,8.06
2017-05-24T23:16:17.751Z,7.88
2017-05-24T23:18:45.980Z,8.60
2017-05-24T23:21:14.227Z,11.10
2017-05-24T23:23:42.459Z,9.82
2017-05-24T23:26:10.730Z,10.16
2017-05-24T23:28:38.966Z,8.56
2017-05-24T23:31:07.232Z,8.60
2017-05-24T23:33:35.523Z,7.68
2017-05-24T23:36:03.763Z,8.90
2017-05-24T23:38:32.003Z,9.12
2017-05-24T23:41:00.227Z,7.82
2017-05-24T23:43:28.461Z,9.34
2017-05-24T23:45:56.695Z,9.20
2017-05-24T23:48:24.942Z,8.76
2017-05-24T23:50:53.203Z,8.96
2017-05-24T23:53:21.422Z,8.38
2017-05-24T23:55:49.672Z,8.80
2017-05-24T23:58:17.919Z,8.60
